This is the latest recevied weather packets stored in our database for station/object OE3EMC-13. If no packets are shown the sender has not sent any weather packets the latest 10 day(s).
| Time | Temp. | Humidity | Pressure | Rain* | Wind** | Luminosity | Snow |
|---|---|---|---|---|---|---|---|
| 1777649593 | 21.11° C | 36% | 1100 hPa | 0 mm | - | - | - |
| 1777648993 | 21.11° C | 36% | 1100 hPa | 0 mm | - | - | - |
| 1777648393 | 19.44° C | 37% | 1100 hPa | 0 mm | - | - | - |
| 1777647793 | 19.44° C | 37% | 1100 hPa | 0 mm | - | - | - |
| 1777647194 | 22.22° C | 35% | 1100 hPa | 0 mm | - | - | - |
| 1777646592 | 22.22° C | 35% | 1100 hPa | 0 mm | - | - | - |
| 1777645992 | 21.67° C | 35% | 1100 hPa | 0 mm | - | - | - |
| 1777645392 | 21.67° C | 35% | 1100 hPa | 0 mm | - | - | - |
| 1777644792 | 20.56° C | 35% | 1100 hPa | 0 mm | - | - | - |
| 1777644193 | 20.56° C | 35% | 1100 hPa | 0 mm | - | - | - |
| 1777643593 | 21.11° C | 34% | 1100 hPa | 0 mm | - | - | - |
| 1777642992 | 21.11° C | 34% | 1100 hPa | 0 mm | - | - | - |
| 1777642392 | 20.56° C | 37% | 1100 hPa | 0 mm | - | - | - |
| 1777641791 | 20.56° C | 37% | 1100 hPa | 0 mm | - | - | - |
| 1777641192 | 20.56° C | 35% | 1100 hPa | 0 mm | - | - | - |
| 1777640592 | 20.56° C | 35% | 1100 hPa | 0 mm | - | - | - |
| 1777639991 | 18.89° C | 40% | 1100 hPa | 0 mm | - | - | - |
| 1777639391 | 18.89° C | 40% | 1100 hPa | 0 mm | - | - | - |
| 1777638791 | 18.33° C | 39% | 1100 hPa | 0 mm | - | - | - |
| 1777638191 | 18.33° C | 39% | 1100 hPa | 0 mm | - | - | - |
| 1777637590 | 17.78° C | 39% | 1100 hPa | 0 mm | - | - | - |
| 1777636991 | 17.78° C | 39% | 1100 hPa | 0 mm | - | - | - |
| 1777636390 | 17.78° C | 43% | 1100 hPa | 0 mm | - | - | - |
| 1777635790 | 17.78° C | 43% | 1100 hPa | 0 mm | - | - | - |
| 1777635190 | 18.89° C | 41% | 1100 hPa | 0 mm | - | - | - |
* Rain latest hour (hover to see other rain measurements)
** Current wind speed in m/s (hover to see current wind gust speed)